createdAt,value
2023-01-12T00:01:54.043Z,99956.50
2023-01-12T00:04:21.736Z,99948.44
2023-01-12T00:06:49.333Z,99953.28
2023-01-12T00:09:17.219Z,99943.53
2023-01-12T00:11:46.170Z,99941.59
2023-01-12T00:14:13.773Z,99943.75
2023-01-12T00:16:41.828Z,99942.41
2023-01-12T00:19:15.530Z,99935.19
2023-01-12T00:21:56.217Z,99927.78
2023-01-12T00:24:25.591Z,99930.56
2023-01-12T00:26:55.799Z,99923.66
2023-01-12T00:29:23.827Z,99923.47
2023-01-12T00:31:51.756Z,99926.66
2023-01-12T00:34:19.731Z,99913.88
2023-01-12T00:36:47.958Z,99908.31
2023-01-12T00:39:16.218Z,99903.81
2023-01-12T00:42:02.331Z,99894.91
2023-01-12T00:44:49.442Z,99892.78
2023-01-12T00:47:17.652Z,99899.34
2023-01-12T00:49:45.650Z,99902.97
2023-01-12T00:52:24.892Z,99909.22
2023-01-12T00:54:57.379Z,99919.34
2023-01-12T00:57:24.977Z,99919.50
2023-01-12T00:59:55.549Z,99931.34
2023-01-12T01:02:23.509Z,99910.13
2023-01-12T01:04:51.474Z,99904.16
2023-01-12T01:07:21.421Z,99915.56
2023-01-12T01:09:49.102Z,99919.25
2023-01-12T01:12:16.910Z,99916.59
2023-01-12T01:14:44.675Z,99921.25
2023-01-12T01:17:13.638Z,99915.91
2023-01-12T01:19:41.203Z,99918.13
2023-01-12T01:22:08.958Z,99932.28
2023-01-12T01:24:36.569Z,99934.78
2023-01-12T01:27:04.329Z,99944.19
2023-01-12T01:29:31.925Z,99936.06
2023-01-12T01:31:59.462Z,99942.84
2023-01-12T01:34:28.646Z,99942.69
2023-01-12T01:36:56.275Z,99932.66
2023-01-12T01:39:23.965Z,99934.78
2023-01-12T01:41:52.006Z,99928.50
2023-01-12T01:45:33.739Z,99935.78
2023-01-12T01:48:03.222Z,99938.75
2023-01-12T01:50:37.086Z,99925.00
2023-01-12T01:53:07.735Z,99914.03
2023-01-12T01:55:39.657Z,99911.69
2023-01-12T01:58:11.178Z,99913.88
2023-01-12T02:00:40.154Z,99904.44
2023-01-12T02:03:09.573Z,99896.81
2023-01-12T02:05:42.818Z,99897.50
2023-01-12T02:08:18.950Z,99881.38
2023-01-12T02:10:46.833Z,99874.56
2023-01-12T02:13:32.159Z,99880.69
2023-01-12T02:16:20.365Z,99885.00
2023-01-12T02:18:56.078Z,99890.78
2023-01-12T02:21:50.380Z,99887.28
2023-01-12T02:24:41.474Z,99893.41
2023-01-12T02:27:26.095Z,99878.56
2023-01-12T02:30:41.389Z,99885.22
2023-01-12T02:33:24.818Z,99885.06
2023-01-12T02:36:00.369Z,99887.22
2023-01-12T02:38:36.821Z,99894.59
2023-01-12T02:41:12.259Z,99878.75
2023-01-12T02:43:41.042Z,99880.22
2023-01-12T02:46:14.447Z,99872.50
2023-01-12T02:48:48.594Z,99881.09
2023-01-12T02:51:23.232Z,99873.84
2023-01-12T02:53:53.993Z,99874.16
2023-01-12T02:56:25.293Z,99870.38
2023-01-12T02:58:56.889Z,99868.25
2023-01-12T03:01:27.613Z,99862.28
2023-01-12T03:04:01.071Z,99861.94
2023-01-12T03:06:42.690Z,99868.53
2023-01-12T03:09:11.005Z,99868.72
2023-01-12T03:11:41.505Z,99868.56
2023-01-12T03:14:12.285Z,99851.72
2023-01-12T03:16:41.119Z,99852.16
2023-01-12T03:19:15.600Z,99851.84
2023-01-12T03:21:49.748Z,99855.31
2023-01-12T03:24:22.717Z,99858.44
2023-01-12T03:26:55.785Z,99861.59
2023-01-12T03:29:31.215Z,99850.03
2023-01-12T03:31:59.648Z,99850.88
2023-01-12T03:34:29.704Z,99853.50
2023-01-12T03:37:04.655Z,99861.28
2023-01-12T03:39:40.184Z,99858.94
2023-01-12T03:42:13.006Z,99844.91
2023-01-12T03:44:44.064Z,99853.97
2023-01-12T03:47:17.283Z,99857.28
2023-01-12T03:49:52.181Z,99852.47
2023-01-12T03:52:22.432Z,99840.09
2023-01-12T03:54:53.077Z,99831.34
2023-01-12T03:57:21.731Z,99825.25
2023-01-12T03:59:49.704Z,99819.00
2023-01-12T04:02:17.224Z,99827.56
2023-01-12T04:04:46.368Z,99826.56
2023-01-12T04:07:13.970Z,99807.75
2023-01-12T04:09:41.546Z,99806.28
2023-01-12T04:12:13.235Z,99811.91
2023-01-12T04:14:43.127Z,99822.13
2023-01-12T04:17:13.188Z,99812.94
2023-01-12T04:19:41.165Z,99816.56
2023-01-12T04:22:28.613Z,99818.22
2023-01-12T04:24:56.270Z,99814.88
2023-01-12T04:27:23.806Z,99812.59
2023-01-12T04:29:51.348Z,99790.34
2023-01-12T04:32:18.915Z,99789.50
2023-01-12T04:34:46.980Z,99790.16
2023-01-12T04:37:16.148Z,99799.09
2023-01-12T04:39:43.735Z,99785.56
2023-01-12T04:42:31.939Z,99790.84
2023-01-12T04:44:59.730Z,99780.13
2023-01-12T04:47:27.490Z,99788.72
2023-01-12T04:49:55.112Z,99762.13
2023-01-12T04:52:24.026Z,99771.56
2023-01-12T04:54:51.640Z,99777.81
2023-01-12T04:57:19.223Z,99774.22
2023-01-12T04:59:46.833Z,99773.38
2023-01-12T05:02:14.579Z,99779.16
2023-01-12T05:04:42.620Z,99777.00
2023-01-12T05:07:10.204Z,99759.34
2023-01-12T05:09:56.510Z,99766.28
2023-01-12T05:12:24.305Z,99754.75
2023-01-12T05:14:52.224Z,99766.44
2023-01-12T05:17:19.868Z,99759.50
2023-01-12T05:19:49.275Z,99745.16
2023-01-12T05:22:17.304Z,99748.78
2023-01-12T05:24:46.182Z,99743.19
2023-01-12T05:27:13.751Z,99748.78
2023-01-12T05:29:41.351Z,99744.19
2023-01-12T05:32:08.961Z,99742.84
2023-01-12T05:34:36.609Z,99730.16
2023-01-12T05:37:04.257Z,99736.56
2023-01-12T05:39:31.979Z,99725.84
2023-01-12T05:42:18.314Z,99727.50
2023-01-12T05:44:46.216Z,99717.09
2023-01-12T05:47:13.783Z,99716.78
2023-01-12T05:49:41.518Z,99710.97
2023-01-12T05:52:09.065Z,99713.81
2023-01-12T05:54:36.602Z,99698.28
2023-01-12T05:57:05.696Z,99694.50
2023-01-12T05:59:33.280Z,99705.38
2023-01-12T06:02:00.914Z,99704.22
2023-01-12T06:04:28.620Z,99715.63
2023-01-12T06:06:56.204Z,99698.63
2023-01-12T06:09:23.776Z,99705.56
2023-01-12T06:12:09.083Z,99699.63
2023-01-12T06:14:38.409Z,99704.91
2023-01-12T06:17:06.343Z,99693.72
2023-01-12T06:19:34.567Z,99697.97
2023-01-12T06:22:02.129Z,99687.94
2023-01-12T06:24:29.729Z,99687.75
2023-01-12T06:26:58.495Z,99683.44
2023-01-12T06:29:26.183Z,99689.41
2023-01-12T06:31:55.093Z,99698.31
2023-01-12T06:34:22.684Z,99692.34
2023-01-12T06:36:50.431Z,99696.50
2023-01-12T06:39:17.989Z,99693.03
2023-01-12T06:42:03.121Z,99694.16
2023-01-12T06:44:30.790Z,99691.22
2023-01-12T06:46:59.761Z,99696.16
2023-01-12T06:49:27.314Z,99688.72
2023-01-12T06:51:54.908Z,99680.66
2023-01-12T06:54:22.549Z,99672.56
2023-01-12T06:56:50.168Z,99681.63
2023-01-12T06:59:17.790Z,99678.50
2023-01-12T07:01:45.469Z,99672.22
2023-01-12T07:04:14.489Z,99682.31
2023-01-12T07:06:42.103Z,99667.09
2023-01-12T07:09:09.712Z,99672.22
2023-01-12T07:11:37.351Z,99665.13
2023-01-12T07:14:05.529Z,99669.25
2023-01-12T07:16:34.691Z,99662.78
2023-01-12T07:19:02.295Z,99669.59
2023-01-12T07:21:31.223Z,99658.69
2023-01-12T07:23:58.789Z,99652.38
2023-01-12T07:26:26.379Z,99662.78
2023-01-12T07:28:53.954Z,99677.47
2023-01-12T07:31:21.634Z,99666.59
2023-01-12T07:33:51.832Z,99668.91
2023-01-12T07:36:19.375Z,99684.44
2023-01-12T07:38:48.404Z,99676.50
2023-01-12T07:41:30.204Z,99661.97
2023-01-12T07:43:58.036Z,99670.53
2023-01-12T07:46:25.721Z,99664.28
2023-01-12T07:48:53.351Z,99664.59
2023-01-12T07:51:20.984Z,99665.75
2023-01-12T07:53:50.108Z,99661.31
2023-01-12T07:56:19.065Z,99667.38
2023-01-12T07:58:48.211Z,99660.28
2023-01-12T08:01:16.279Z,99659.97
2023-01-12T08:03:43.925Z,99655.50
2023-01-12T08:06:11.752Z,99667.22
2023-01-12T08:08:39.437Z,99648.91
2023-01-12T08:11:10.919Z,99643.81
2023-01-12T08:13:40.560Z,99638.84
2023-01-12T08:16:13.587Z,99643.50
2023-01-12T08:18:46.823Z,99627.78
2023-01-12T08:21:21.709Z,99650.91
2023-01-12T08:23:52.981Z,99636.91
2023-01-12T08:26:25.669Z,99648.94
2023-01-12T08:28:57.494Z,99646.81
2023-01-12T08:31:26.414Z,99642.84
2023-01-12T08:33:55.315Z,99649.47
2023-01-12T08:36:24.441Z,99652.09
2023-01-12T08:38:52.223Z,99651.56
2023-01-12T08:41:36.578Z,99661.13
2023-01-12T08:44:10.310Z,99658.34
2023-01-12T08:46:39.408Z,99664.75
2023-01-12T08:49:11.228Z,99662.47
2023-01-12T08:51:39.444Z,99655.69
2023-01-12T08:54:07.886Z,99641.16
2023-01-12T08:56:36.202Z,99661.16
2023-01-12T08:59:05.077Z,99661.59
2023-01-12T09:01:34.614Z,99646.09
2023-01-12T09:04:02.563Z,99665.56
2023-01-12T09:06:32.296Z,99659.97
2023-01-12T09:09:01.558Z,99648.91
2023-01-12T09:11:30.843Z,99661.13
2023-01-12T09:13:58.824Z,99640.97
2023-01-12T09:16:28.004Z,99649.72
2023-01-12T09:18:57.221Z,99656.31
2023-01-12T09:21:26.857Z,99671.53
2023-01-12T09:23:55.297Z,99643.66
2023-01-12T09:26:26.022Z,99641.31
2023-01-12T09:28:53.846Z,99641.84
2023-01-12T09:31:23.575Z,99647.78
2023-01-12T09:33:52.704Z,99653.25
2023-01-12T09:36:24.224Z,99651.75
2023-01-12T09:38:52.374Z,99649.94
2023-01-12T09:41:37.710Z,99649.09
2023-01-12T09:44:28.768Z,99648.63
2023-01-12T09:46:59.319Z,99649.78
2023-01-12T09:49:30.177Z,99652.75
2023-01-12T09:52:03.909Z,99646.31
2023-01-12T09:54:34.757Z,99674.56
2023-01-12T09:57:12.806Z,99682.97
2023-01-12T09:59:53.912Z,99668.25
2023-01-12T10:02:21.803Z,99669.59
2023-01-12T10:04:51.858Z,99669.44
2023-01-12T10:07:20.960Z,99666.13
2023-01-12T10:09:48.622Z,99667.09
2023-01-12T10:12:23.949Z,99667.94
2023-01-12T10:15:09.812Z,99652.41
2023-01-12T10:17:51.748Z,99661.31
2023-01-12T10:20:28.668Z,99649.91
2023-01-12T10:23:02.482Z,99644.47
2023-01-12T10:25:38.429Z,99625.16
2023-01-12T10:28:16.463Z,99626.28
2023-01-12T10:30:45.178Z,99623.50
2023-01-12T10:33:18.168Z,99645.16
2023-01-12T10:35:54.309Z,99647.13
2023-01-12T10:38:29.434Z,99639.50
2023-01-12T10:41:16.958Z,99642.81
2023-01-12T10:43:46.037Z,99645.47
2023-01-12T10:46:16.648Z,99645.94
2023-01-12T10:48:46.319Z,99660.97
2023-01-12T10:51:27.415Z,99650.88
2023-01-12T10:54:01.409Z,99637.31
2023-01-12T10:56:33.519Z,99656.66
2023-01-12T10:59:05.482Z,99665.28
2023-01-12T11:01:47.785Z,99654.84
2023-01-12T11:04:20.015Z,99648.56
2023-01-12T11:06:58.135Z,99640.47
2023-01-12T11:09:29.619Z,99637.47
2023-01-12T11:11:59.044Z,99644.22
2023-01-12T11:14:29.787Z,99659.94
2023-01-12T11:17:10.819Z,99640.97
2023-01-12T11:19:42.187Z,99649.41
2023-01-12T11:22:14.146Z,99653.97
2023-01-12T11:24:49.123Z,99651.69
2023-01-12T11:27:22.509Z,99645.09
2023-01-12T11:29:57.243Z,99631.41
2023-01-12T11:32:33.474Z,99652.19
2023-01-12T11:35:06.362Z,99632.72
2023-01-12T11:37:39.316Z,99615.34
2023-01-12T11:40:24.444Z,99618.44
2023-01-12T11:43:10.931Z,99608.78
2023-01-12T11:45:46.481Z,99606.81
2023-01-12T11:48:22.519Z,99615.56
2023-01-12T11:50:51.751Z,99618.19
2023-01-12T11:53:22.897Z,99594.53
2023-01-12T11:56:06.048Z,99586.28
2023-01-12T11:58:42.853Z,99587.44
2023-01-12T12:01:19.855Z,99602.94
2023-01-12T12:03:56.327Z,99581.75
2023-01-12T12:06:42.874Z,99585.94
2023-01-12T12:09:30.530Z,99572.72
2023-01-12T12:12:03.278Z,99566.81
2023-01-12T12:14:47.399Z,99561.69
2023-01-12T12:17:21.237Z,99559.97
2023-01-12T12:20:01.361Z,99554.06
2023-01-12T12:22:50.256Z,99559.00
2023-01-12T12:25:28.780Z,99565.28
2023-01-12T12:28:15.046Z,99560.66
2023-01-12T12:31:01.160Z,99556.00
2023-01-12T12:33:41.509Z,99562.66
2023-01-12T12:36:18.562Z,99567.53
2023-01-12T12:39:16.447Z,99562.78
2023-01-12T12:42:10.021Z,99554.31
2023-01-12T12:45:06.683Z,99551.94
2023-01-12T12:47:58.006Z,99552.75
2023-01-12T12:50:30.919Z,99554.44
2023-01-12T12:53:21.124Z,99556.88
2023-01-12T12:55:49.841Z,99560.22
2023-01-12T12:58:42.873Z,99558.16
2023-01-12T13:01:42.467Z,99564.72
2023-01-12T13:04:12.335Z,99559.72
2023-01-12T13:06:43.580Z,99557.50
2023-01-12T13:09:40.295Z,99564.59
2023-01-12T13:12:27.870Z,99562.94
2023-01-12T13:15:32.400Z,99558.25
2023-01-12T13:18:01.342Z,99558.94
2023-01-12T13:21:01.590Z,99543.88
2023-01-12T13:23:52.042Z,99544.66
2023-01-12T13:26:42.532Z,99547.53
2023-01-12T13:29:39.763Z,99539.34
2023-01-12T13:32:50.418Z,99544.97
2023-01-12T13:35:28.332Z,99530.78
2023-01-12T13:38:02.284Z,99521.38
2023-01-12T13:40:32.544Z,99525.78
2023-01-12T13:43:16.829Z,99530.44
2023-01-12T13:45:53.356Z,99517.53
2023-01-12T13:48:22.427Z,99512.25
2023-01-12T13:50:54.107Z,99518.03
2023-01-12T13:53:26.526Z,99511.41
2023-01-12T13:55:57.929Z,99506.00
2023-01-12T13:58:25.788Z,99507.38
2023-01-12T14:00:59.706Z,99523.53
2023-01-12T14:03:48.187Z,99503.84
2023-01-12T14:06:26.840Z,99512.09
2023-01-12T14:09:10.884Z,99505.84
2023-01-12T14:11:57.845Z,99515.09
2023-01-12T14:15:06.080Z,99506.50
2023-01-12T14:17:53.176Z,99516.84
2023-01-12T14:20:22.816Z,99505.63
2023-01-12T14:23:12.779Z,99509.09
2023-01-12T14:25:40.422Z,99506.97
2023-01-12T14:28:17.893Z,99520.47
2023-01-12T14:30:51.961Z,99505.38
2023-01-12T14:33:21.405Z,99502.97
2023-01-12T14:35:52.184Z,99498.81
2023-01-12T14:38:23.347Z,99506.25
2023-01-12T14:40:58.539Z,99496.06
2023-01-12T14:43:43.790Z,99510.66
2023-01-12T14:46:26.645Z,99504.66
2023-01-12T14:49:02.587Z,99505.84
2023-01-12T14:51:35.598Z,99503.25
2023-01-12T14:54:19.689Z,99501.84
2023-01-12T14:56:56.274Z,99505.78
2023-01-12T14:59:28.699Z,99510.66
2023-01-12T15:02:20.204Z,99504.38
2023-01-12T15:04:53.067Z,99508.66
2023-01-12T15:07:22.480Z,99514.66
2023-01-12T15:09:56.706Z,99508.03
2023-01-12T15:12:44.427Z,99526.00
2023-01-12T15:15:17.264Z,99518.81
2023-01-12T15:18:02.844Z,99518.81
2023-01-12T15:20:51.798Z,99503.31
2023-01-12T15:23:37.105Z,99514.56
2023-01-12T15:26:06.090Z,99502.84
2023-01-12T15:28:33.751Z,99509.28
2023-01-12T15:31:01.805Z,99505.16
2023-01-12T15:33:29.505Z,99499.06
2023-01-12T15:35:58.242Z,99510.66
2023-01-12T15:38:28.953Z,99509.47
2023-01-12T15:40:56.661Z,99495.41
2023-01-12T15:43:25.600Z,99509.38
2023-01-12T15:45:54.628Z,99502.44
2023-01-12T15:48:22.270Z,99517.31
2023-01-12T15:50:50.365Z,99520.59
2023-01-12T15:53:20.167Z,99523.06
2023-01-12T15:55:48.521Z,99522.25
2023-01-12T15:58:26.366Z,99526.72
2023-01-12T16:00:54.201Z,99516.63
2023-01-12T16:03:54.637Z,99509.16
2023-01-12T16:06:09.466Z,99514.16
2023-01-12T16:08:37.452Z,99526.84
2023-01-12T16:11:13.278Z,99516.31
2023-01-12T16:13:42.296Z,99522.41
2023-01-12T16:16:15.853Z,99520.09
2023-01-12T16:18:43.988Z,99522.78
2023-01-12T16:21:16.099Z,99504.59
2023-01-12T16:23:43.763Z,99517.31
2023-01-12T16:26:11.446Z,99501.63
2023-01-12T16:28:39.053Z,99505.63
2023-01-12T16:31:10.726Z,99518.69
2023-01-12T16:33:38.545Z,99509.44
2023-01-12T16:36:07.095Z,99508.28
2023-01-12T16:38:34.891Z,99494.38
2023-01-12T16:41:09.388Z,99507.59
2023-01-12T16:43:38.082Z,99488.72
2023-01-12T16:46:08.279Z,99511.06
2023-01-12T16:48:39.193Z,99502.59
2023-01-12T16:51:11.449Z,99492.03
2023-01-12T16:53:40.603Z,99494.84
2023-01-12T16:56:08.611Z,99490.75
2023-01-12T16:58:36.241Z,99481.16
2023-01-12T17:01:12.908Z,99461.47
2023-01-12T17:03:42.226Z,99467.41
2023-01-12T17:06:10.988Z,99469.59
2023-01-12T17:08:38.849Z,99477.16
2023-01-12T17:11:08.101Z,99470.22
2023-01-12T17:13:36.212Z,99471.94
2023-01-12T17:16:07.464Z,99478.38
2023-01-12T17:18:37.361Z,99456.34
2023-01-12T17:21:07.660Z,99455.66
2023-01-12T17:23:35.711Z,99457.53
2023-01-12T17:26:04.628Z,99448.50
2023-01-12T17:28:34.887Z,99436.97
2023-01-12T17:31:08.293Z,99444.25
2023-01-12T17:33:37.760Z,99447.22
2023-01-12T17:36:06.579Z,99451.34
2023-01-12T17:38:34.692Z,99441.22
2023-01-12T17:41:07.938Z,99446.47
2023-01-12T17:43:37.051Z,99445.94
2023-01-12T17:46:07.481Z,99449.72
2023-01-12T17:48:35.142Z,99453.03
2023-01-12T17:51:11.678Z,99445.03
2023-01-12T17:53:39.357Z,99453.78
2023-01-12T17:56:09.711Z,99447.03
2023-01-12T17:58:37.991Z,99450.31
2023-01-12T18:01:11.763Z,99436.09
2023-01-12T18:03:39.622Z,99429.47
2023-01-12T18:06:14.970Z,99439.03
2023-01-12T18:08:47.103Z,99432.25
2023-01-12T18:11:14.715Z,99431.88
2023-01-12T18:13:42.716Z,99435.06
2023-01-12T18:16:12.672Z,99432.13
2023-01-12T18:18:42.037Z,99430.59
2023-01-12T18:21:13.358Z,99436.88
2023-01-12T18:23:41.777Z,99432.75
2023-01-12T18:26:11.910Z,99444.03
2023-01-12T18:28:39.755Z,99442.69
2023-01-12T18:31:09.599Z,99428.66
2023-01-12T18:33:37.789Z,99441.03
2023-01-12T18:36:09.295Z,99438.75
2023-01-12T18:38:39.820Z,99439.69
2023-01-12T18:41:25.105Z,99432.31
2023-01-12T18:43:52.852Z,99441.91
2023-01-12T18:46:20.580Z,99440.97
2023-01-12T18:48:48.035Z,99449.72
2023-01-12T18:51:33.760Z,99440.63
2023-01-12T18:54:02.743Z,99438.44
2023-01-12T18:56:30.438Z,99425.50
2023-01-12T18:58:58.078Z,99428.53
2023-01-12T19:01:25.839Z,99426.69
2023-01-12T19:03:53.582Z,99428.44
2023-01-12T19:06:25.378Z,99426.81
2023-01-12T19:09:10.787Z,99423.66
2023-01-12T19:11:40.908Z,99415.06
2023-01-12T19:14:26.208Z,99410.63
2023-01-12T19:17:11.634Z,99423.41
2023-01-12T19:19:39.571Z,99419.75
2023-01-12T19:22:33.392Z,99432.19
2023-01-12T19:25:18.538Z,99432.06
2023-01-12T19:28:05.234Z,99414.44
2023-01-12T19:30:33.917Z,99429.78
2023-01-12T19:33:03.659Z,99426.66
2023-01-12T19:35:31.368Z,99429.81
2023-01-12T19:37:59.099Z,99419.91
2023-01-12T19:40:33.686Z,99414.94
2023-01-12T19:43:13.578Z,99424.69
2023-01-12T19:45:43.089Z,99418.09
2023-01-12T19:48:13.000Z,99412.94
2023-01-12T19:50:43.844Z,99403.06
2023-01-12T20:05:29.585Z,99382.66
2023-01-12T20:07:57.285Z,99392.91
2023-01-12T20:10:25.312Z,99396.69
2023-01-12T20:12:53.131Z,99391.78
2023-01-12T20:15:21.908Z,99389.63
2023-01-12T20:17:50.342Z,99392.28
2023-01-12T20:20:19.018Z,99396.56
2023-01-12T20:22:50.305Z,99389.84
2023-01-12T20:25:18.232Z,99379.06
2023-01-12T20:27:46.368Z,99370.78
2023-01-12T20:30:18.189Z,99369.44
2023-01-12T20:32:51.467Z,99374.09
2023-01-12T20:35:22.324Z,99359.06
2023-01-12T20:37:52.780Z,99361.03
2023-01-12T20:40:21.199Z,99357.41
2023-01-12T20:42:49.143Z,99366.16
2023-01-12T20:45:18.210Z,99331.78
2023-01-12T20:47:45.916Z,99352.03
2023-01-12T20:50:14.965Z,99353.69
2023-01-12T20:52:42.884Z,99358.53
2023-01-12T20:55:11.955Z,99338.91
2023-01-12T20:57:39.826Z,99350.75
2023-01-12T21:00:10.040Z,99338.78
2023-01-12T21:02:38.313Z,99345.59
2023-01-12T21:05:06.421Z,99354.50
2023-01-12T21:07:34.349Z,99360.66
2023-01-12T21:10:02.080Z,99360.50
2023-01-12T21:12:31.167Z,99353.56
2023-01-12T21:14:59.066Z,99363.47
2023-01-12T21:17:27.617Z,99364.13
2023-01-12T21:19:55.380Z,99363.13
2023-01-12T21:22:23.059Z,99357.56
2023-01-12T21:24:50.996Z,99351.78
2023-01-12T21:27:18.680Z,99341.91
2023-01-12T21:29:47.890Z,99332.28
2023-01-12T21:32:15.888Z,99340.66
2023-01-12T21:34:43.620Z,99333.44
2023-01-12T21:37:11.307Z,99335.06
2023-01-12T21:39:39.036Z,99333.22
2023-01-12T21:42:24.523Z,99332.13
2023-01-12T21:44:53.717Z,99332.28
2023-01-12T21:47:21.316Z,99320.88
2023-01-12T21:49:48.855Z,99335.59
2023-01-12T21:52:16.564Z,99319.75
2023-01-12T21:54:44.182Z,99325.19
2023-01-12T21:57:11.937Z,99322.81
2023-01-12T21:59:39.612Z,99312.78
2023-01-12T22:02:11.572Z,99327.13
2023-01-12T22:04:39.467Z,99318.31
2023-01-12T22:07:07.237Z,99321.97
2023-01-12T22:09:34.940Z,99326.28
2023-01-12T22:12:02.573Z,99333.22
2023-01-12T22:14:30.134Z,99327.44
2023-01-12T22:16:57.821Z,99330.09
2023-01-12T22:19:26.746Z,99325.31
2023-01-12T22:21:54.282Z,99330.28
2023-01-12T22:24:22.047Z,99320.41
2023-01-12T22:26:49.635Z,99319.75
2023-01-12T22:29:17.322Z,99315.97
2023-01-12T22:31:44.983Z,99301.56
2023-01-12T22:34:12.829Z,99305.56
2023-01-12T22:36:43.585Z,99303.22
2023-01-12T22:39:12.559Z,99305.53
2023-01-12T22:41:40.510Z,99302.50
2023-01-12T22:44:08.134Z,99295.53
2023-01-12T22:46:36.810Z,99294.16
2023-01-12T22:49:04.417Z,99312.84
2023-01-12T22:51:32.055Z,99299.63
2023-01-12T22:54:00.942Z,99295.66
2023-01-12T22:56:28.729Z,99308.00
2023-01-12T22:58:57.631Z,99289.81
2023-01-12T23:01:26.424Z,99298.25
2023-01-12T23:03:55.221Z,99297.75
2023-01-12T23:06:23.510Z,99300.09
2023-01-12T23:08:51.931Z,99296.47
2023-01-12T23:11:23.450Z,99281.13
2023-01-12T23:13:51.568Z,99282.75
2023-01-12T23:16:20.186Z,99287.72
2023-01-12T23:18:49.830Z,99276.59
2023-01-12T23:21:20.491Z,99268.94
2023-01-12T23:23:50.184Z,99285.19
2023-01-12T23:26:19.786Z,99285.47
2023-01-12T23:28:50.955Z,99275.19
2023-01-12T23:31:21.201Z,99270.88
2023-01-12T23:33:49.680Z,99268.72
2023-01-12T23:36:19.797Z,99268.25
2023-01-12T23:38:47.538Z,99261.31
2023-01-12T23:41:18.024Z,99273.72
2023-01-12T23:43:45.909Z,99267.63
2023-01-12T23:46:16.800Z,99268.94
2023-01-12T23:48:44.605Z,99259.38
2023-01-12T23:51:12.261Z,99258.56
2023-01-12T23:53:39.842Z,99254.75
2023-01-12T23:56:09.102Z,99256.56
2023-01-12T23:58:36.887Z,99256.38
